• Join FlightAware (Why Join?)
  • Login
  • US Flag 
11:37AM EST


 

Airport Tracker/Info


-or-


 

Live Flight TrackerFlight Track Log ✈ SKW5606 ✈ 22-Apr-2013 ✈ KHPN - KORD

Flight Track Log - Related Links

Times and Time Zones

All times are in EDT time to prevent confusion due to time zone crossing. See the SKW5606 flight status page for this flight to view local times or setup timezone preferences in your user account.

Time Position Orientation Groundspeed Altitude Reporting Facility
EDT Latitude Longitude Course Direction KTS MPH feet Rate Location/Type
12:46PM 41.0500 -73.7000 270° West 160 184 1,500  Level New York TRACON
12:47PM 41.0333 -73.7500 246° West 224 258 4,800 2,760 Climbing New York TRACON
12:49PM 41.1011 -73.9100 299° West 298 343 9,900 2,580 Climbing New York Center
12:50PM 41.1088 -74.3562 275° West  Level FlightAware Approximate
12:50PM 41.1442 -74.0139 299° West 292 336 12,500  Level New York Center
12:51PM 41.1167 -74.4887 270° West  Level FlightAware Approximate
12:51PM 41.1536 -74.1192 277° West 298 343 14,400  Level New York Center
12:52PM 41.1500 -74.2511 268° West 331 381 17,000 1,980 Climbing New York Center
12:53PM 41.1486 -74.3642 269° West 342 394 18,400 1,440 Climbing New York Center
12:54PM 41.1428 -74.4878 266° West 342 394 19,900 1,620 Climbing New York Center
12:55PM 41.1386 -74.6142 268° West 348 400 21,700 1,620 Climbing New York Center
12:56PM 41.1550 -74.7447 280° West 353 406 23,200 1,620 Climbing New York Center
12:57PM 41.2172 -74.8781 302° West 363 418 25,000 1,500 Climbing New York Center
12:58PM 41.2633 -74.9858 300° West 363 418 26,200 960 Climbing New York Center
12:59PM 41.3147 -75.1214 297° West 376 433 27,000 840 Climbing New York Center
01:00PM 41.3689 -75.2328 303° West 383 441 28,000 480 Climbing New York Center
01:01PM 41.4244 -75.3636 300° West 396 456 28,000  Level New York Center
01:02PM 41.4814 -75.5033 299° West 415 478 28,000  Level New York Center
01:03PM 41.5289 -75.6647 292° West 422 486 28,000  Level New York Center
01:04PM 41.5653 -75.7919 291° West 422 486 28,000  Level New York Center
01:05PM 41.6047 -75.9392 290° West 422 486 28,000 240 Level New York Center
01:06PM 41.6464 -76.0786 292° West 417 480 28,500 840 Climbing New York Center
01:08PM 41.7286 -76.3786 290° West 434 499 30,600 1,020 Climbing Cleveland Center
01:09PM 41.7672 -76.5181 290° West 421 484 31,600 660 Climbing Cleveland Center
01:10PM 41.8053 -76.6550 290° West 408 470 32,000 180 Climbing Cleveland Center
01:11PM 41.8475 -76.7975 292° West 408 470 32,000  Level Cleveland Center
01:12PM 41.8836 -76.9403 289° West 403 464 32,000  Level Cleveland Center
01:13PM 41.9256 -77.0886 291° West 408 470 32,000  Level Cleveland Center
01:14PM 41.9656 -77.2375 290° West 418 481 32,000  Level Cleveland Center
01:15PM 42.0053 -77.3864 290° West 423 487 32,000  Level Cleveland Center
01:16PM 42.0447 -77.5353 290° West 418 481 32,000  Level Cleveland Center
01:17PM 42.0839 -77.6844 290° West 418 481 32,000  Level Cleveland Center
01:18PM 42.1231 -77.8339 290° West 418 481 32,000  Level Cleveland Center
01:19PM 42.1619 -77.9808 290° West 418 481 32,000  Level Cleveland Center
01:20PM 42.2028 -78.1306 290° West 418 481 32,000  Level Cleveland Center
01:21PM 42.2392 -78.2806 288° West 418 481 32,000  Level Cleveland Center
01:22PM 42.2750 -78.4111 290° West 418 481 32,000  Level Cleveland Center
01:23PM 42.3133 -78.5586 289° West 418 481 32,000  Level Cleveland Center
01:24PM 42.3511 -78.7092 289° West 418 481 32,000  Level Cleveland Center
01:25PM 42.3889 -78.8572 289° West 418 481 32,000  Level Cleveland Center
01:26PM 42.4244 -79.0081 288° West 418 481 32,000  Level Cleveland Center
01:27PM 42.4639 -79.1561 290° West 418 481 32,000  Level Cleveland Center
01:28PM 42.4947 -79.3047 286° West 418 481 32,000  Level Cleveland Center
01:29PM 42.5006 -79.4594 273° West 418 481 32,000  Level Cleveland Center
01:30PM 42.5103 -79.6142 275° West 413 475 32,000  Level Cleveland Center
01:31PM 42.5178 -79.7719 274° West 413 475 32,000  Level Cleveland Center
01:32PM 42.5250 -79.9239 274° West 413 475 32,000  Level Cleveland Center
01:33PM 42.5300 -80.0844 272° West 419 482 32,000  Level Cleveland Center
01:34PM 42.5367 -80.2339 274° West 419 482 32,000  Level Cleveland Center
01:35PM 42.5414 -80.3858 272° West 414 476 32,000  Level Cleveland Center
01:36PM 42.5478 -80.5436 273° West 414 476 32,000  Level Cleveland Center
01:37PM 42.5539 -80.6986 273° West 420 483 32,000  Level Cleveland Center
01:38PM 42.5600 -80.8650 273° West 420 483 32,000  Level Cleveland Center
01:39PM 42.5656 -81.0203 273° West 410 472 32,000  Level Cleveland Center
01:40PM 42.5692 -81.1697 272° West 404 465 32,000  Level Cleveland Center
01:41PM 42.5767 -81.3247 274° West 404 465 32,000  Level Cleveland Center
01:42PM 42.5881 -81.4772 276° West 404 465 32,000  Level Cleveland Center
01:43PM 42.6139 -81.6269 283° West 409 471 32,000  Level Cleveland Center
01:44PM 42.6394 -81.7769 283° West 408 470 32,000  Level Cleveland Center
01:45PM 42.6669 -81.9272 284° West 408 470 32,000  Level Cleveland Center
01:46PM 42.6922 -82.0775 283° West 414 476 32,000  Level Cleveland Center
01:47PM 42.7194 -82.2278 284° West 414 476 32,000  Level Cleveland Center
01:48PM 42.7339 -82.3808 277° West 414 476 32,000  Level Cleveland Center
01:49PM 42.7436 -82.5367 275° West 414 476 32,000  Level Cleveland Center
01:51PM 42.7675 -82.8289 276° West 413 475 32,000  Level Cleveland Center
01:52PM 42.7769 -82.9847 275° West 413 475 32,000  Level Cleveland Center
01:53PM 42.7903 -83.1464 276° West 418 481 32,000  Level Cleveland Center
01:54PM 42.8011 -83.3083 275° West 423 487 32,000  Level Cleveland Center
01:55PM 42.8117 -83.4700 275° West 428 493 32,000  Level Cleveland Center
01:56PM 42.8242 -83.6378 276° West 433 498 32,000  Level Cleveland Center
01:57PM 42.8342 -83.8025 275° West 438 504 32,000  Level Cleveland Center
01:58PM 42.8442 -83.9644 275° West 438 504 32,000  Level Cleveland Center
01:59PM 42.8558 -84.1294 276° West 445 512 32,000  Level Cleveland Center
02:00PM 42.8653 -84.2942 275° West 445 512 32,000  Level Cleveland Center
02:01PM 42.8767 -84.4611 275° West 433 498 32,000  Level Chicago Center
02:02PM 42.8789 -84.6253 271° West 434 499 32,000  Level Chicago Center
02:03PM 42.8594 -84.8183 262° West 429 494 32,000  Level Chicago Center
02:04PM 42.8428 -84.9808 262° West 433 498 32,000  Level Chicago Center
02:05PM 42.8250 -85.1436 262° West 434 499 32,000  Level Chicago Center
02:06PM 42.8078 -85.3058 262° West 435 501 32,000  Level Chicago Center
02:07PM 42.7897 -85.4681 261° West 433 498 32,000  Level Chicago Center
02:08PM 42.7628 -85.6286 257° West 434 499 32,000 -660 Level Chicago Center
02:09PM 42.7350 -85.7856 257° West 427 491 30,700 -2,700 Descending Chicago Center
02:10PM 42.7011 -85.9694 256° West 416 479 26,500 -3,720 Descending Chicago Center
02:11PM 42.6747 -86.1189 257° West 407 468 23,100 -3,120 Descending Chicago Center
02:12PM 42.6481 -86.2675 256° West 404 465 20,100 -1,500 Descending Chicago Center
02:13PM 42.6206 -86.4078 255° West 388 447 20,100 -60 Level Chicago Center
02:14PM 42.5925 -86.5533 255° West 396 456 20,000 -1,260 Descending Chicago Center
02:15PM 42.5656 -86.7086 257° West 388 447 17,600 -2,280 Descending Chicago Center
02:16PM 42.5350 -86.8239 250° West 366 421 15,300 -2,340 Descending Chicago Center
02:18PM 42.5008 -86.9472 249° West 353 406 12,800 -2,520 Descending Chicago Center
02:19PM 42.4608 -87.0906 249° West 342 394 10,100 -1,800 Descending Chicago Center
02:20PM 42.4333 -87.1886 249° West 285 328 9,100 -540 Descending Chicago Center
02:21PM 42.4069 -87.2872 250° West 278 320 9,000 -120 Descending Chicago Center
02:22PM 42.3808 -87.3808 249° West 271 312 8,900 -780 Descending Chicago Center
02:23PM 42.3561 -87.4739 250° West 234 269 7,500 -960 Descending Chicago Center
02:24PM 42.3175 -87.5394 231° Southwest 229 264 7,000 -300 Descending Chicago Center
02:25PM 42.2764 -87.5847 219° Southwest 216 249 7,000 -480 Level Chicago Center
02:26PM 42.2281 -87.6403 220° Southwest 194 223 6,100 -900 Descending Chicago Center
02:27PM 42.1889 -87.6833 219° Southwest 185 213 5,200 -900 Descending Chicago Center
02:28PM 42.1489 -87.7283 220° Southwest 187 215 4,300 -840 Descending Chicago Center
02:29PM 42.1111 -87.7700 219° Southwest 182 209 3,500 -780 Descending Chicago Center